sensor_id;sensor_type;location;lat;lon;timestamp;temperature;humidity
56066;DHT22;75952;50.922;4.514;2024-02-16T00:00:30;12.90;82.40
56066;DHT22;75952;50.922;4.514;2024-02-16T00:02:56;12.90;82.40
56066;DHT22;75952;50.922;4.514;2024-02-16T00:05:22;12.90;82.40
56066;DHT22;75952;50.922;4.514;2024-02-16T00:07:47;12.80;83.40
56066;DHT22;75952;50.922;4.514;2024-02-16T00:10:13;12.90;83.00
56066;DHT22;75952;50.922;4.514;2024-02-16T00:12:39;12.80;82.50
56066;DHT22;75952;50.922;4.514;2024-02-16T00:15:06;12.80;83.20
56066;DHT22;75952;50.922;4.514;2024-02-16T00:17:33;12.80;83.50
56066;DHT22;75952;50.922;4.514;2024-02-16T00:19:59;12.80;83.60
56066;DHT22;75952;50.922;4.514;2024-02-16T00:22:27;12.80;84.30
56066;DHT22;75952;50.922;4.514;2024-02-16T00:24:53;12.70;84.10
56066;DHT22;75952;50.922;4.514;2024-02-16T00:27:20;12.70;83.70
56066;DHT22;75952;50.922;4.514;2024-02-16T00:29:46;12.60;84.10
56066;DHT22;75952;50.922;4.514;2024-02-16T00:32:12;12.60;83.60
56066;DHT22;75952;50.922;4.514;2024-02-16T00:34:38;12.50;84.00
56066;DHT22;75952;50.922;4.514;2024-02-16T00:37:05;12.60;84.00
56066;DHT22;75952;50.922;4.514;2024-02-16T00:39:35;12.60;84.20
56066;DHT22;75952;50.922;4.514;2024-02-16T00:42:05;12.50;84.30
56066;DHT22;75952;50.922;4.514;2024-02-16T00:44:31;12.50;84.80
56066;DHT22;75952;50.922;4.514;2024-02-16T00:46:59;12.40;84.20
56066;DHT22;75952;50.922;4.514;2024-02-16T00:49:27;12.40;84.70
56066;DHT22;75952;50.922;4.514;2024-02-16T00:51:53;12.40;84.60
56066;DHT22;75952;50.922;4.514;2024-02-16T00:54:18;12.30;85.10
56066;DHT22;75952;50.922;4.514;2024-02-16T00:56:44;12.40;84.80
56066;DHT22;75952;50.922;4.514;2024-02-16T00:59:10;12.40;85.10
56066;DHT22;75952;50.922;4.514;2024-02-16T01:01:36;12.40;86.00
56066;DHT22;75952;50.922;4.514;2024-02-16T01:04:02;12.40;85.30
56066;DHT22;75952;50.922;4.514;2024-02-16T01:06:32;12.50;85.50
56066;DHT22;75952;50.922;4.514;2024-02-16T01:08:58;12.40;86.00
56066;DHT22;75952;50.922;4.514;2024-02-16T01:11:24;12.40;85.40
56066;DHT22;75952;50.922;4.514;2024-02-16T01:13:52;12.50;84.40
56066;DHT22;75952;50.922;4.514;2024-02-16T01:16:20;12.50;84.90
56066;DHT22;75952;50.922;4.514;2024-02-16T01:18:48;12.50;85.10
56066;DHT22;75952;50.922;4.514;2024-02-16T01:21:16;12.60;85.10
56066;DHT22;75952;50.922;4.514;2024-02-16T01:23:42;12.50;84.80
56066;DHT22;75952;50.922;4.514;2024-02-16T01:26:07;12.50;85.30
56066;DHT22;75952;50.922;4.514;2024-02-16T01:28:35;12.50;85.00
56066;DHT22;75952;50.922;4.514;2024-02-16T01:31:01;12.50;85.50
56066;DHT22;75952;50.922;4.514;2024-02-16T01:33:26;12.50;85.60
56066;DHT22;75952;50.922;4.514;2024-02-16T01:35:54;12.40;85.60
56066;DHT22;75952;50.922;4.514;2024-02-16T01:38:20;12.40;85.50
56066;DHT22;75952;50.922;4.514;2024-02-16T01:40:48;12.40;85.60
56066;DHT22;75952;50.922;4.514;2024-02-16T01:43:16;12.30;86.00
56066;DHT22;75952;50.922;4.514;2024-02-16T01:45:44;12.30;86.40
56066;DHT22;75952;50.922;4.514;2024-02-16T01:48:10;12.30;86.10
56066;DHT22;75952;50.922;4.514;2024-02-16T01:50:36;12.30;86.30
56066;DHT22;75952;50.922;4.514;2024-02-16T01:53:03;12.30;86.30
56066;DHT22;75952;50.922;4.514;2024-02-16T01:55:32;12.40;85.50
56066;DHT22;75952;50.922;4.514;2024-02-16T01:58:00;12.50;85.10
56066;DHT22;75952;50.922;4.514;2024-02-16T02:00:26;12.50;87.00
56066;DHT22;75952;50.922;4.514;2024-02-16T02:02:52;12.50;85.80
56066;DHT22;75952;50.922;4.514;2024-02-16T02:05:20;12.50;85.50
56066;DHT22;75952;50.922;4.514;2024-02-16T02:07:48;12.50;85.80
56066;DHT22;75952;50.922;4.514;2024-02-16T02:10:14;12.60;85.70
56066;DHT22;75952;50.922;4.514;2024-02-16T02:12:42;12.60;86.40
56066;DHT22;75952;50.922;4.514;2024-02-16T02:15:09;12.60;85.10
56066;DHT22;75952;50.922;4.514;2024-02-16T02:17:35;12.60;85.10
56066;DHT22;75952;50.922;4.514;2024-02-16T02:20:01;12.60;85.60
56066;DHT22;75952;50.922;4.514;2024-02-16T02:22:29;12.70;85.90
56066;DHT22;75952;50.922;4.514;2024-02-16T02:24:59;12.70;85.60
56066;DHT22;75952;50.922;4.514;2024-02-16T02:27:27;12.80;84.90
56066;DHT22;75952;50.922;4.514;2024-02-16T02:29:59;12.80;84.40
56066;DHT22;75952;50.922;4.514;2024-02-16T02:32:25;12.90;84.70
56066;DHT22;75952;50.922;4.514;2024-02-16T02:34:51;12.80;84.80
56066;DHT22;75952;50.922;4.514;2024-02-16T02:37:17;12.80;85.00
56066;DHT22;75952;50.922;4.514;2024-02-16T02:39:42;12.80;85.10
56066;DHT22;75952;50.922;4.514;2024-02-16T02:42:09;12.80;85.90
56066;DHT22;75952;50.922;4.514;2024-02-16T02:44:38;12.80;84.80
56066;DHT22;75952;50.922;4.514;2024-02-16T02:47:03;12.80;85.70
56066;DHT22;75952;50.922;4.514;2024-02-16T02:49:31;12.70;85.90
56066;DHT22;75952;50.922;4.514;2024-02-16T02:52:02;12.80;85.40
56066;DHT22;75952;50.922;4.514;2024-02-16T02:54:32;12.80;84.80
56066;DHT22;75952;50.922;4.514;2024-02-16T02:57:01;12.90;84.70
56066;DHT22;75952;50.922;4.514;2024-02-16T02:59:29;12.90;84.20
56066;DHT22;75952;50.922;4.514;2024-02-16T03:01:56;12.90;84.20
56066;DHT22;75952;50.922;4.514;2024-02-16T03:04:24;13.00;84.80
56066;DHT22;75952;50.922;4.514;2024-02-16T03:06:52;12.90;84.50
56066;DHT22;75952;50.922;4.514;2024-02-16T03:09:20;12.90;85.20
56066;DHT22;75952;50.922;4.514;2024-02-16T03:11:48;13.00;84.60
56066;DHT22;75952;50.922;4.514;2024-02-16T03:14:20;12.90;85.60
56066;DHT22;75952;50.922;4.514;2024-02-16T03:16:45;12.90;85.50
56066;DHT22;75952;50.922;4.514;2024-02-16T03:19:11;12.90;85.70
56066;DHT22;75952;50.922;4.514;2024-02-16T03:21:39;12.90;85.60
56066;DHT22;75952;50.922;4.514;2024-02-16T03:24:07;12.80;86.60
56066;DHT22;75952;50.922;4.514;2024-02-16T03:26:37;12.80;86.70
56066;DHT22;75952;50.922;4.514;2024-02-16T03:29:05;12.80;86.10
56066;DHT22;75952;50.922;4.514;2024-02-16T03:31:32;12.80;86.50
56066;DHT22;75952;50.922;4.514;2024-02-16T03:33:58;12.80;86.90
56066;DHT22;75952;50.922;4.514;2024-02-16T03:36:27;12.80;86.30
56066;DHT22;75952;50.922;4.514;2024-02-16T03:38:52;12.80;86.20
56066;DHT22;75952;50.922;4.514;2024-02-16T03:41:20;12.80;86.20
56066;DHT22;75952;50.922;4.514;2024-02-16T03:43:46;12.90;85.80
56066;DHT22;75952;50.922;4.514;2024-02-16T03:46:12;12.80;86.50
56066;DHT22;75952;50.922;4.514;2024-02-16T03:48:40;13.00;85.30
56066;DHT22;75952;50.922;4.514;2024-02-16T03:51:06;13.00;85.70
56066;DHT22;75952;50.922;4.514;2024-02-16T03:53:32;13.10;85.80
56066;DHT22;75952;50.922;4.514;2024-02-16T03:55:58;12.90;86.50
56066;DHT22;75952;50.922;4.514;2024-02-16T03:58:24;12.90;86.40
56066;DHT22;75952;50.922;4.514;2024-02-16T04:00:52;13.00;86.20
56066;DHT22;75952;50.922;4.514;2024-02-16T04:03:20;12.90;86.50
56066;DHT22;75952;50.922;4.514;2024-02-16T04:05:46;12.90;87.00
56066;DHT22;75952;50.922;4.514;2024-02-16T04:08:12;12.80;87.20
56066;DHT22;75952;50.922;4.514;2024-02-16T04:10:37;12.90;86.90
56066;DHT22;75952;50.922;4.514;2024-02-16T04:13:03;12.90;88.10
56066;DHT22;75952;50.922;4.514;2024-02-16T04:15:34;13.00;87.00
56066;DHT22;75952;50.922;4.514;2024-02-16T04:18:02;13.00;87.60
56066;DHT22;75952;50.922;4.514;2024-02-16T04:20:27;13.00;86.80
56066;DHT22;75952;50.922;4.514;2024-02-16T04:22:55;12.90;87.10
56066;DHT22;75952;50.922;4.514;2024-02-16T04:25:21;12.90;87.80
56066;DHT22;75952;50.922;4.514;2024-02-16T04:27:46;12.90;87.70
56066;DHT22;75952;50.922;4.514;2024-02-16T04:30:12;12.90;88.80
56066;DHT22;75952;50.922;4.514;2024-02-16T04:32:38;13.00;88.00
56066;DHT22;75952;50.922;4.514;2024-02-16T04:35:07;13.00;87.30
56066;DHT22;75952;50.922;4.514;2024-02-16T04:37:37;13.10;87.50
56066;DHT22;75952;50.922;4.514;2024-02-16T04:40:04;13.00;86.80
56066;DHT22;75952;50.922;4.514;2024-02-16T04:42:31;13.10;86.80
56066;DHT22;75952;50.922;4.514;2024-02-16T04:44:57;13.10;87.00
56066;DHT22;75952;50.922;4.514;2024-02-16T04:47:22;13.10;86.60
56066;DHT22;75952;50.922;4.514;2024-02-16T04:49:52;13.00;86.90
56066;DHT22;75952;50.922;4.514;2024-02-16T04:52:18;13.00;86.90
56066;DHT22;75952;50.922;4.514;2024-02-16T04:54:44;13.00;87.10
56066;DHT22;75952;50.922;4.514;2024-02-16T04:57:10;13.00;87.20
56066;DHT22;75952;50.922;4.514;2024-02-16T04:59:35;13.10;87.30
56066;DHT22;75952;50.922;4.514;2024-02-16T05:02:01;13.10;87.30
56066;DHT22;75952;50.922;4.514;2024-02-16T05:04:31;13.30;86.40
56066;DHT22;75952;50.922;4.514;2024-02-16T05:06:57;13.40;86.10
56066;DHT22;75952;50.922;4.514;2024-02-16T05:09:23;13.40;85.60
56066;DHT22;75952;50.922;4.514;2024-02-16T05:11:50;13.50;85.80
56066;DHT22;75952;50.922;4.514;2024-02-16T05:14:16;13.40;85.80
56066;DHT22;75952;50.922;4.514;2024-02-16T05:16:46;13.40;85.90
56066;DHT22;75952;50.922;4.514;2024-02-16T05:19:14;13.30;86.20
56066;DHT22;75952;50.922;4.514;2024-02-16T05:21:40;13.50;85.90
56066;DHT22;75952;50.922;4.514;2024-02-16T05:24:06;13.50;85.40
56066;DHT22;75952;50.922;4.514;2024-02-16T05:26:31;13.50;85.80
56066;DHT22;75952;50.922;4.514;2024-02-16T05:28:57;13.50;86.10
56066;DHT22;75952;50.922;4.514;2024-02-16T05:31:25;13.50;85.90
56066;DHT22;75952;50.922;4.514;2024-02-16T05:33:51;13.50;85.90
56066;DHT22;75952;50.922;4.514;2024-02-16T05:36:18;13.50;85.90
56066;DHT22;75952;50.922;4.514;2024-02-16T05:38:46;13.50;86.70
56066;DHT22;75952;50.922;4.514;2024-02-16T05:41:12;13.60;85.90
56066;DHT22;75952;50.922;4.514;2024-02-16T05:43:38;13.60;85.80
56066;DHT22;75952;50.922;4.514;2024-02-16T05:46:06;13.40;86.40
56066;DHT22;75952;50.922;4.514;2024-02-16T05:48:34;13.30;87.10
56066;DHT22;75952;50.922;4.514;2024-02-16T05:51:03;13.30;87.00
56066;DHT22;75952;50.922;4.514;2024-02-16T05:53:31;13.40;87.20
56066;DHT22;75952;50.922;4.514;2024-02-16T05:55:59;13.60;86.70
56066;DHT22;75952;50.922;4.514;2024-02-16T05:58:25;13.60;86.30
56066;DHT22;75952;50.922;4.514;2024-02-16T06:00:51;13.50;86.60
56066;DHT22;75952;50.922;4.514;2024-02-16T06:03:19;13.50;87.00
56066;DHT22;75952;50.922;4.514;2024-02-16T06:05:48;13.50;86.80
56066;DHT22;75952;50.922;4.514;2024-02-16T06:08:16;13.50;86.60
56066;DHT22;75952;50.922;4.514;2024-02-16T06:10:43;13.50;87.00
56066;DHT22;75952;50.922;4.514;2024-02-16T06:13:09;13.40;87.50
56066;DHT22;75952;50.922;4.514;2024-02-16T06:15:34;13.50;87.00
56066;DHT22;75952;50.922;4.514;2024-02-16T06:18:05;13.40;87.40
56066;DHT22;75952;50.922;4.514;2024-02-16T06:20:32;13.50;87.50
56066;DHT22;75952;50.922;4.514;2024-02-16T06:23:00;13.50;87.50
56066;DHT22;75952;50.922;4.514;2024-02-16T06:25:27;13.60;87.40
56066;DHT22;75952;50.922;4.514;2024-02-16T06:27:55;13.60;87.00
56066;DHT22;75952;50.922;4.514;2024-02-16T06:30:20;13.70;87.00
56066;DHT22;75952;50.922;4.514;2024-02-16T06:32:47;13.70;86.80
56066;DHT22;75952;50.922;4.514;2024-02-16T06:35:12;13.80;86.20
56066;DHT22;75952;50.922;4.514;2024-02-16T06:37:38;13.80;86.80
56066;DHT22;75952;50.922;4.514;2024-02-16T06:40:05;13.90;86.40
56066;DHT22;75952;50.922;4.514;2024-02-16T06:42:31;14.00;86.50
56066;DHT22;75952;50.922;4.514;2024-02-16T06:44:59;13.90;86.70
56066;DHT22;75952;50.922;4.514;2024-02-16T06:47:27;14.00;86.80
56066;DHT22;75952;50.922;4.514;2024-02-16T06:49:52;14.00;86.80
56066;DHT22;75952;50.922;4.514;2024-02-16T06:52:18;14.00;86.80
56066;DHT22;75952;50.922;4.514;2024-02-16T06:54:46;14.00;87.20
56066;DHT22;75952;50.922;4.514;2024-02-16T06:57:12;14.00;87.30
56066;DHT22;75952;50.922;4.514;2024-02-16T06:59:37;14.10;86.90
56066;DHT22;75952;50.922;4.514;2024-02-16T07:02:05;14.00;87.20
56066;DHT22;75952;50.922;4.514;2024-02-16T07:04:34;14.00;87.30
56066;DHT22;75952;50.922;4.514;2024-02-16T07:07:00;14.10;87.60
56066;DHT22;75952;50.922;4.514;2024-02-16T07:09:28;14.00;88.50
56066;DHT22;75952;50.922;4.514;2024-02-16T07:11:54;14.00;88.70
56066;DHT22;75952;50.922;4.514;2024-02-16T07:14:22;14.00;88.70
56066;DHT22;75952;50.922;4.514;2024-02-16T07:16:47;14.10;88.60
56066;DHT22;75952;50.922;4.514;2024-02-16T07:19:13;14.10;88.70
56066;DHT22;75952;50.922;4.514;2024-02-16T07:21:39;14.10;88.80
56066;DHT22;75952;50.922;4.514;2024-02-16T07:24:04;14.10;88.90
56066;DHT22;75952;50.922;4.514;2024-02-16T07:26:34;14.00;89.20
56066;DHT22;75952;50.922;4.514;2024-02-16T07:28:59;14.00;89.80
56066;DHT22;75952;50.922;4.514;2024-02-16T07:31:34;14.00;90.00
56066;DHT22;75952;50.922;4.514;2024-02-16T07:34:02;14.00;90.10
56066;DHT22;75952;50.922;4.514;2024-02-16T07:36:29;13.90;90.30
56066;DHT22;75952;50.922;4.514;2024-02-16T07:38:55;13.90;90.40
56066;DHT22;75952;50.922;4.514;2024-02-16T07:41:25;13.90;90.20
56066;DHT22;75952;50.922;4.514;2024-02-16T07:43:50;13.90;90.30
56066;DHT22;75952;50.922;4.514;2024-02-16T07:46:18;13.80;90.40
56066;DHT22;75952;50.922;4.514;2024-02-16T07:48:46;13.90;90.30
56066;DHT22;75952;50.922;4.514;2024-02-16T07:51:12;13.90;90.20
56066;DHT22;75952;50.922;4.514;2024-02-16T07:53:39;13.90;90.30
56066;DHT22;75952;50.922;4.514;2024-02-16T07:56:07;14.00;89.90
56066;DHT22;75952;50.922;4.514;2024-02-16T07:58:37;14.00;90.00
56066;DHT22;75952;50.922;4.514;2024-02-16T08:01:03;14.00;89.70
56066;DHT22;75952;50.922;4.514;2024-02-16T08:03:29;14.10;89.60
56066;DHT22;75952;50.922;4.514;2024-02-16T08:05:55;14.00;89.80
56066;DHT22;75952;50.922;4.514;2024-02-16T08:08:22;14.10;89.40
56066;DHT22;75952;50.922;4.514;2024-02-16T08:10:48;14.20;89.30
56066;DHT22;75952;50.922;4.514;2024-02-16T08:13:14;14.20;88.90
56066;DHT22;75952;50.922;4.514;2024-02-16T08:15:39;14.30;88.40
56066;DHT22;75952;50.922;4.514;2024-02-16T08:18:07;14.30;88.30
56066;DHT22;75952;50.922;4.514;2024-02-16T08:20:33;14.40;88.00
56066;DHT22;75952;50.922;4.514;2024-02-16T08:22:58;14.40;88.00
56066;DHT22;75952;50.922;4.514;2024-02-16T08:25:27;14.40;88.20
56066;DHT22;75952;50.922;4.514;2024-02-16T08:27:53;14.40;88.20
56066;DHT22;75952;50.922;4.514;2024-02-16T08:30:21;14.40;88.10
56066;DHT22;75952;50.922;4.514;2024-02-16T08:32:50;14.50;87.60
56066;DHT22;75952;50.922;4.514;2024-02-16T08:35:16;14.50;87.60
56066;DHT22;75952;50.922;4.514;2024-02-16T08:37:42;14.50;88.00
56066;DHT22;75952;50.922;4.514;2024-02-16T08:40:08;14.40;88.40
56066;DHT22;75952;50.922;4.514;2024-02-16T08:42:42;14.40;88.70
56066;DHT22;75952;50.922;4.514;2024-02-16T08:45:10;14.40;88.50
56066;DHT22;75952;50.922;4.514;2024-02-16T08:47:38;14.40;89.10
56066;DHT22;75952;50.922;4.514;2024-02-16T08:50:04;14.50;89.70
56066;DHT22;75952;50.922;4.514;2024-02-16T08:52:31;14.40;90.20
56066;DHT22;75952;50.922;4.514;2024-02-16T08:54:57;14.40;90.30
56066;DHT22;75952;50.922;4.514;2024-02-16T08:57:25;14.30;91.00
56066;DHT22;75952;50.922;4.514;2024-02-16T08:59:51;14.30;91.00
56066;DHT22;75952;50.922;4.514;2024-02-16T09:02:21;14.30;91.20
56066;DHT22;75952;50.922;4.514;2024-02-16T09:04:47;14.20;91.40
56066;DHT22;75952;50.922;4.514;2024-02-16T09:07:15;14.00;91.60
56066;DHT22;75952;50.922;4.514;2024-02-16T09:09:41;14.00;91.70
56066;DHT22;75952;50.922;4.514;2024-02-16T09:12:07;14.00;91.90
56066;DHT22;75952;50.922;4.514;2024-02-16T09:14:32;14.00;91.70
56066;DHT22;75952;50.922;4.514;2024-02-16T09:16:58;14.10;91.60
56066;DHT22;75952;50.922;4.514;2024-02-16T09:19:26;14.10;91.70
56066;DHT22;75952;50.922;4.514;2024-02-16T09:21:54;14.00;91.70
56066;DHT22;75952;50.922;4.514;2024-02-16T09:24:20;14.20;91.70
56066;DHT22;75952;50.922;4.514;2024-02-16T09:26:46;14.20;91.60
56066;DHT22;75952;50.922;4.514;2024-02-16T09:29:13;14.10;91.80
56066;DHT22;75952;50.922;4.514;2024-02-16T09:31:42;14.20;91.90
56066;DHT22;75952;50.922;4.514;2024-02-16T09:34:08;14.20;91.70
56066;DHT22;75952;50.922;4.514;2024-02-16T09:36:34;14.10;92.00
56066;DHT22;75952;50.922;4.514;2024-02-16T09:39:02;14.10;92.10
56066;DHT22;75952;50.922;4.514;2024-02-16T09:41:28;14.00;92.10
56066;DHT22;75952;50.922;4.514;2024-02-16T09:43:56;14.10;92.20
56066;DHT22;75952;50.922;4.514;2024-02-16T09:46:23;14.00;92.50
56066;DHT22;75952;50.922;4.514;2024-02-16T09:48:49;14.00;93.00
56066;DHT22;75952;50.922;4.514;2024-02-16T09:51:20;13.80;93.30
56066;DHT22;75952;50.922;4.514;2024-02-16T09:53:50;14.00;93.10
56066;DHT22;75952;50.922;4.514;2024-02-16T09:56:20;14.00;93.20
56066;DHT22;75952;50.922;4.514;2024-02-16T09:58:46;14.00;93.10
56066;DHT22;75952;50.922;4.514;2024-02-16T10:01:21;14.20;92.70
56066;DHT22;75952;50.922;4.514;2024-02-16T10:03:47;14.10;93.00
56066;DHT22;75952;50.922;4.514;2024-02-16T10:06:13;14.00;93.00
56066;DHT22;75952;50.922;4.514;2024-02-16T10:11:17;14.00;93.50
56066;DHT22;75952;50.922;4.514;2024-02-16T10:16:24;14.10;93.10
56066;DHT22;75952;50.922;4.514;2024-02-16T10:18:50;14.00;93.20
56066;DHT22;75952;50.922;4.514;2024-02-16T10:21:26;14.20;92.90
56066;DHT22;75952;50.922;4.514;2024-02-16T10:24:12;14.10;93.00
56066;DHT22;75952;50.922;4.514;2024-02-16T10:26:40;14.20;92.70
56066;DHT22;75952;50.922;4.514;2024-02-16T10:29:08;14.20;93.00
56066;DHT22;75952;50.922;4.514;2024-02-16T10:31:34;14.20;93.00
56066;DHT22;75952;50.922;4.514;2024-02-16T10:34:02;14.20;92.80
56066;DHT22;75952;50.922;4.514;2024-02-16T10:36:32;14.20;92.70
56066;DHT22;75952;50.922;4.514;2024-02-16T10:38:59;14.30;92.60
56066;DHT22;75952;50.922;4.514;2024-02-16T10:41:28;14.30;92.70
56066;DHT22;75952;50.922;4.514;2024-02-16T10:43:55;14.20;92.80
56066;DHT22;75952;50.922;4.514;2024-02-16T10:46:24;14.30;92.70
56066;DHT22;75952;50.922;4.514;2024-02-16T10:48:50;14.20;92.60
56066;DHT22;75952;50.922;4.514;2024-02-16T10:51:18;14.10;93.00
56066;DHT22;75952;50.922;4.514;2024-02-16T10:53:46;14.10;93.10
56066;DHT22;75952;50.922;4.514;2024-02-16T10:56:15;14.10;93.30
56066;DHT22;75952;50.922;4.514;2024-02-16T10:58:47;14.00;93.40
56066;DHT22;75952;50.922;4.514;2024-02-16T11:01:15;14.10;93.40
56066;DHT22;75952;50.922;4.514;2024-02-16T11:03:41;14.00;93.30
56066;DHT22;75952;50.922;4.514;2024-02-16T11:06:18;13.90;93.60
56066;DHT22;75952;50.922;4.514;2024-02-16T11:08:49;13.90;93.50
56066;DHT22;75952;50.922;4.514;2024-02-16T11:11:24;13.90;93.70
56066;DHT22;75952;50.922;4.514;2024-02-16T11:13:54;13.90;94.00
56066;DHT22;75952;50.922;4.514;2024-02-16T11:16:21;13.90;93.90
56066;DHT22;75952;50.922;4.514;2024-02-16T11:18:47;14.00;93.70
56066;DHT22;75952;50.922;4.514;2024-02-16T11:21:16;14.00;93.40
56066;DHT22;75952;50.922;4.514;2024-02-16T11:23:44;14.00;93.60
56066;DHT22;75952;50.922;4.514;2024-02-16T11:26:13;14.00;93.60
56066;DHT22;75952;50.922;4.514;2024-02-16T11:28:41;13.90;93.90
56066;DHT22;75952;50.922;4.514;2024-02-16T11:31:07;13.90;93.80
56066;DHT22;75952;50.922;4.514;2024-02-16T11:33:34;13.80;94.20
56066;DHT22;75952;50.922;4.514;2024-02-16T11:36:04;13.80;94.50
56066;DHT22;75952;50.922;4.514;2024-02-16T11:38:32;13.80;94.70
56066;DHT22;75952;50.922;4.514;2024-02-16T11:41:05;13.70;95.00
56066;DHT22;75952;50.922;4.514;2024-02-16T11:43:33;13.60;95.50
56066;DHT22;75952;50.922;4.514;2024-02-16T11:45:58;13.40;96.00
56066;DHT22;75952;50.922;4.514;2024-02-16T11:48:25;13.60;95.90
56066;DHT22;75952;50.922;4.514;2024-02-16T11:51:04;13.60;96.00
56066;DHT22;75952;50.922;4.514;2024-02-16T11:53:33;13.40;96.30
56066;DHT22;75952;50.922;4.514;2024-02-16T11:56:01;13.50;96.50
56066;DHT22;75952;50.922;4.514;2024-02-16T11:58:28;13.40;96.60
56066;DHT22;75952;50.922;4.514;2024-02-16T12:00:55;13.40;97.00
56066;DHT22;75952;50.922;4.514;2024-02-16T12:03:25;13.40;96.80
56066;DHT22;75952;50.922;4.514;2024-02-16T12:05:53;13.50;97.20
56066;DHT22;75952;50.922;4.514;2024-02-16T12:08:19;13.50;97.00
56066;DHT22;75952;50.922;4.514;2024-02-16T12:10:51;13.50;96.90
56066;DHT22;75952;50.922;4.514;2024-02-16T12:13:18;13.60;96.80
56066;DHT22;75952;50.922;4.514;2024-02-16T12:15:49;13.60;96.90
56066;DHT22;75952;50.922;4.514;2024-02-16T12:18:22;13.60;96.50
56066;DHT22;75952;50.922;4.514;2024-02-16T12:21:01;13.40;97.30
56066;DHT22;75952;50.922;4.514;2024-02-16T12:23:27;13.40;97.20
56066;DHT22;75952;50.922;4.514;2024-02-16T12:25:53;13.40;97.10
56066;DHT22;75952;50.922;4.514;2024-02-16T12:28:30;13.10;97.60
56066;DHT22;75952;50.922;4.514;2024-02-16T12:31:00;13.20;97.80
56066;DHT22;75952;50.922;4.514;2024-02-16T12:33:28;12.90;98.60
56066;DHT22;75952;50.922;4.514;2024-02-16T12:35:56;13.00;98.80
56066;DHT22;75952;50.922;4.514;2024-02-16T12:38:25;13.20;98.40
56066;DHT22;75952;50.922;4.514;2024-02-16T12:40:51;13.30;97.70
56066;DHT22;75952;50.922;4.514;2024-02-16T12:43:16;13.20;97.80
56066;DHT22;75952;50.922;4.514;2024-02-16T12:45:44;13.40;97.40
56066;DHT22;75952;50.922;4.514;2024-02-16T12:48:09;13.00;97.60
56066;DHT22;75952;50.922;4.514;2024-02-16T12:50:39;12.90;98.20
56066;DHT22;75952;50.922;4.514;2024-02-16T12:53:09;13.10;97.50
56066;DHT22;75952;50.922;4.514;2024-02-16T12:55:38;12.90;98.10
56066;DHT22;75952;50.922;4.514;2024-02-16T12:58:07;13.10;98.00
56066;DHT22;75952;50.922;4.514;2024-02-16T13:00:32;13.20;97.70
56066;DHT22;75952;50.922;4.514;2024-02-16T13:02:58;13.30;97.10
56066;DHT22;75952;50.922;4.514;2024-02-16T13:05:24;13.30;96.80
56066;DHT22;75952;50.922;4.514;2024-02-16T13:07:55;13.10;97.30
56066;DHT22;75952;50.922;4.514;2024-02-16T13:10:20;13.10;97.40
56066;DHT22;75952;50.922;4.514;2024-02-16T13:12:46;13.20;97.20
56066;DHT22;75952;50.922;4.514;2024-02-16T13:15:12;12.80;98.30
56066;DHT22;75952;50.922;4.514;2024-02-16T13:17:40;12.70;98.10
56066;DHT22;75952;50.922;4.514;2024-02-16T13:20:07;12.80;98.70
56066;DHT22;75952;50.922;4.514;2024-02-16T13:22:35;12.70;98.10
56066;DHT22;75952;50.922;4.514;2024-02-16T13:25:07;12.70;98.70
56066;DHT22;75952;50.922;4.514;2024-02-16T13:27:35;12.90;98.30
56066;DHT22;75952;50.922;4.514;2024-02-16T13:30:04;12.90;98.20
56066;DHT22;75952;50.922;4.514;2024-02-16T13:32:33;13.00;97.80
56066;DHT22;75952;50.922;4.514;2024-02-16T13:35:01;13.00;97.70
56066;DHT22;75952;50.922;4.514;2024-02-16T13:37:26;13.30;97.30
56066;DHT22;75952;50.922;4.514;2024-02-16T13:39:52;13.20;96.50
56066;DHT22;75952;50.922;4.514;2024-02-16T13:42:17;13.10;97.50
56066;DHT22;75952;50.922;4.514;2024-02-16T13:44:45;13.00;97.40
56066;DHT22;75952;50.922;4.514;2024-02-16T13:47:13;13.30;97.00
56066;DHT22;75952;50.922;4.514;2024-02-16T13:49:38;13.20;97.30
56066;DHT22;75952;50.922;4.514;2024-02-16T13:52:04;13.40;96.70
56066;DHT22;75952;50.922;4.514;2024-02-16T13:54:32;13.70;96.40
56066;DHT22;75952;50.922;4.514;2024-02-16T13:56:58;14.00;96.20
56066;DHT22;75952;50.922;4.514;2024-02-16T13:59:26;13.70;96.20
56066;DHT22;75952;50.922;4.514;2024-02-16T14:01:55;13.70;95.90
56066;DHT22;75952;50.922;4.514;2024-02-16T14:04:24;13.50;96.10
56066;DHT22;75952;50.922;4.514;2024-02-16T14:06:52;13.60;96.20
56066;DHT22;75952;50.922;4.514;2024-02-16T14:09:17;13.40;95.90
56066;DHT22;75952;50.922;4.514;2024-02-16T14:11:46;13.50;96.30
56066;DHT22;75952;50.922;4.514;2024-02-16T14:14:16;13.50;96.20
56066;DHT22;75952;50.922;4.514;2024-02-16T14:16:43;13.50;96.10
56066;DHT22;75952;50.922;4.514;2024-02-16T14:19:09;13.60;95.90
56066;DHT22;75952;50.922;4.514;2024-02-16T14:21:39;13.70;95.90
56066;DHT22;75952;50.922;4.514;2024-02-16T14:24:05;13.80;95.20
56066;DHT22;75952;50.922;4.514;2024-02-16T14:26:31;14.00;94.20
56066;DHT22;75952;50.922;4.514;2024-02-16T14:28:56;13.90;94.60
56066;DHT22;75952;50.922;4.514;2024-02-16T14:31:22;13.80;94.50
56066;DHT22;75952;50.922;4.514;2024-02-16T14:33:48;13.70;94.60
56066;DHT22;75952;50.922;4.514;2024-02-16T14:36:15;13.40;95.10
56066;DHT22;75952;50.922;4.514;2024-02-16T14:38:40;13.40;95.00
56066;DHT22;75952;50.922;4.514;2024-02-16T14:41:09;13.60;95.40
56066;DHT22;75952;50.922;4.514;2024-02-16T14:43:35;13.40;95.20
56066;DHT22;75952;50.922;4.514;2024-02-16T14:46:08;13.30;95.40
56066;DHT22;75952;50.922;4.514;2024-02-16T14:48:37;13.10;95.90
56066;DHT22;75952;50.922;4.514;2024-02-16T14:51:07;13.40;95.40
56066;DHT22;75952;50.922;4.514;2024-02-16T14:53:35;13.50;94.90
56066;DHT22;75952;50.922;4.514;2024-02-16T14:56:03;13.60;95.10
56066;DHT22;75952;50.922;4.514;2024-02-16T14:58:29;13.70;94.90
56066;DHT22;75952;50.922;4.514;2024-02-16T15:00:57;13.90;94.70
56066;DHT22;75952;50.922;4.514;2024-02-16T15:03:23;13.90;94.50
56066;DHT22;75952;50.922;4.514;2024-02-16T15:05:49;13.70;94.30
56066;DHT22;75952;50.922;4.514;2024-02-16T15:08:16;13.50;95.10
56066;DHT22;75952;50.922;4.514;2024-02-16T15:10:44;13.50;94.80
56066;DHT22;75952;50.922;4.514;2024-02-16T15:13:10;13.60;94.30
56066;DHT22;75952;50.922;4.514;2024-02-16T15:15:36;13.70;94.50
56066;DHT22;75952;50.922;4.514;2024-02-16T15:18:01;13.80;93.70
56066;DHT22;75952;50.922;4.514;2024-02-16T15:20:29;14.00;93.90
56066;DHT22;75952;50.922;4.514;2024-02-16T15:22:55;13.80;93.30
56066;DHT22;75952;50.922;4.514;2024-02-16T15:25:21;13.90;94.10
56066;DHT22;75952;50.922;4.514;2024-02-16T15:27:47;14.00;94.20
56066;DHT22;75952;50.922;4.514;2024-02-16T15:30:16;14.10;94.00
56066;DHT22;75952;50.922;4.514;2024-02-16T15:32:41;14.00;92.80
56066;DHT22;75952;50.922;4.514;2024-02-16T15:35:07;14.00;93.50